sensor_id;sensor_type;location;lat;lon;timestamp;pressure;altitude;pressure_sealevel;temperature;humidity
60725;BME280;59881;36.722;-4.462;2023-05-23T01:10:29;100210.59;;;13.39;100.00
60725;BME280;59881;36.722;-4.462;2023-05-23T01:13:19;100417.63;;;14.87;100.00
60725;BME280;59881;36.722;-4.462;2023-05-23T01:16:05;100409.13;;;14.83;100.00
60725;BME280;59881;36.722;-4.462;2023-05-23T01:18:58;100404.50;;;14.76;100.00
60725;BME280;59881;36.722;-4.462;2023-05-23T01:21:27;100404.91;;;14.71;100.00
60725;BME280;59881;36.722;-4.462;2023-05-23T01:29:37;100339.03;;;14.26;100.00
60725;BME280;59881;36.722;-4.462;2023-05-23T01:32:06;100386.25;;;14.52;100.00
60725;BME280;59881;36.722;-4.462;2023-05-23T01:34:34;100273.28;;;13.70;100.00
60725;BME280;59881;36.722;-4.462;2023-05-23T01:37:00;100115.66;;;12.84;100.00
60725;BME280;59881;36.722;-4.462;2023-05-23T01:39:26;100368.78;;;14.39;100.00
60725;BME280;59881;36.722;-4.462;2023-05-23T01:41:52;100361.69;;;14.40;100.00
60725;BME280;59881;36.722;-4.462;2023-05-23T01:44:19;100319.63;;;14.16;100.00
60725;BME280;59881;36.722;-4.462;2023-05-23T01:46:45;100308.28;;;14.04;100.00
60725;BME280;59881;36.722;-4.462;2023-05-23T01:49:13;100359.97;;;14.29;100.00
60725;BME280;59881;36.722;-4.462;2023-05-23T01:51:40;100338.66;;;14.00;100.00
60725;BME280;59881;36.722;-4.462;2023-05-23T01:54:06;100367.69;;;14.11;100.00
60725;BME280;59881;36.722;-4.462;2023-05-23T01:56:33;100374.34;;;14.05;100.00
60725;BME280;59881;36.722;-4.462;2023-05-23T01:58:59;100287.81;;;13.75;100.00
60725;BME280;59881;36.722;-4.462;2023-05-23T02:01:26;100345.81;;;14.09;100.00
60725;BME280;59881;36.722;-4.462;2023-05-23T02:03:51;100347.88;;;14.05;100.00
60725;BME280;59881;36.722;-4.462;2023-05-23T02:06:17;100283.44;;;13.64;100.00
60725;BME280;59881;36.722;-4.462;2023-05-23T02:08:42;99895.06;;;11.22;100.00
60725;BME280;59881;36.722;-4.462;2023-05-23T02:11:08;100275.31;;;13.56;100.00
60725;BME280;59881;36.722;-4.462;2023-05-23T02:13:34;100340.28;;;13.91;100.00
60725;BME280;59881;36.722;-4.462;2023-05-23T02:16:00;100350.75;;;13.93;100.00
60725;BME280;59881;36.722;-4.462;2023-05-23T02:18:26;100340.16;;;13.93;100.00
60725;BME280;59881;36.722;-4.462;2023-05-23T02:20:54;100332.91;;;13.95;100.00
60725;BME280;59881;36.722;-4.462;2023-05-23T02:23:20;100313.75;;;13.81;100.00
60725;BME280;59881;36.722;-4.462;2023-05-23T02:25:46;100254.25;;;13.45;100.00
60725;BME280;59881;36.722;-4.462;2023-05-23T02:28:12;100210.50;;;13.20;100.00
60725;BME280;59881;36.722;-4.462;2023-05-23T02:30:37;100167.88;;;12.92;100.00
60725;BME280;59881;36.722;-4.462;2023-05-23T02:33:04;99675.16;;;9.86;100.00
60725;BME280;59881;36.722;-4.462;2023-05-23T02:35:30;100333.06;;;13.93;100.00
60725;BME280;59881;36.722;-4.462;2023-05-23T02:37:56;100331.38;;;13.92;100.00
60725;BME280;59881;36.722;-4.462;2023-05-23T02:40:21;100265.41;;;13.49;100.00
60725;BME280;59881;36.722;-4.462;2023-05-23T02:42:47;100338.75;;;13.89;100.00
60725;BME280;59881;36.722;-4.462;2023-05-23T02:45:12;100155.22;;;12.75;100.00
60725;BME280;59881;36.722;-4.462;2023-05-23T02:47:38;100311.06;;;13.72;100.00
60725;BME280;59881;36.722;-4.462;2023-05-23T02:50:04;100281.53;;;13.45;100.00
60725;BME280;59881;36.722;-4.462;2023-05-23T02:52:30;100296.19;;;13.50;100.00
60725;BME280;59881;36.722;-4.462;2023-05-23T02:54:56;100175.56;;;12.74;100.00
60725;BME280;59881;36.722;-4.462;2023-05-23T02:57:21;100296.88;;;13.52;100.00
60725;BME280;59881;36.722;-4.462;2023-05-23T02:59:47;100343.41;;;13.75;100.00
60725;BME280;59881;36.722;-4.462;2023-05-23T03:02:12;100009.09;;;11.90;100.00
60725;BME280;59881;36.722;-4.462;2023-05-23T03:04:38;100317.38;;;13.80;100.00
60725;BME280;59881;36.722;-4.462;2023-05-23T03:07:03;100300.28;;;13.63;100.00
60725;BME280;59881;36.722;-4.462;2023-05-23T03:09:30;100309.72;;;13.77;100.00
60725;BME280;59881;36.722;-4.462;2023-05-23T03:11:56;100193.59;;;12.69;100.00
60725;BME280;59881;36.722;-4.462;2023-05-23T03:14:21;100311.06;;;13.72;100.00
60725;BME280;59881;36.722;-4.462;2023-05-23T03:16:47;100218.13;;;13.13;100.00
60725;BME280;59881;36.722;-4.462;2023-05-23T03:19:12;100308.94;;;13.65;100.00
60725;BME280;59881;36.722;-4.462;2023-05-23T03:21:38;100307.41;;;13.63;100.00
60725;BME280;59881;36.722;-4.462;2023-05-23T03:24:03;100155.63;;;12.70;100.00
60725;BME280;59881;36.722;-4.462;2023-05-23T03:26:29;100185.81;;;12.89;100.00
60725;BME280;59881;36.722;-4.462;2023-05-23T03:28:54;100228.31;;;13.18;100.00
60725;BME280;59881;36.722;-4.462;2023-05-23T03:31:20;100304.88;;;13.61;100.00
60725;BME280;59881;36.722;-4.462;2023-05-23T03:33:46;99984.44;;;11.69;100.00
60725;BME280;59881;36.722;-4.462;2023-05-23T03:36:11;100302.88;;;13.33;100.00
60725;BME280;59881;36.722;-4.462;2023-05-23T03:38:37;100306.88;;;13.69;100.00
60725;BME280;59881;36.722;-4.462;2023-05-23T03:41:02;100080.69;;;11.86;100.00
60725;BME280;59881;36.722;-4.462;2023-05-23T03:43:28;100311.66;;;13.75;100.00
60725;BME280;59881;36.722;-4.462;2023-05-23T03:45:53;100312.38;;;13.77;100.00
60725;BME280;59881;36.722;-4.462;2023-05-23T03:48:19;100313.91;;;13.80;100.00
60725;BME280;59881;36.722;-4.462;2023-05-23T03:50:44;100309.44;;;13.80;100.00
60725;BME280;59881;36.722;-4.462;2023-05-23T03:53:10;100208.03;;;13.07;100.00
60725;BME280;59881;36.722;-4.462;2023-05-23T03:55:37;100267.38;;;13.56;100.00
60725;BME280;59881;36.722;-4.462;2023-05-23T03:58:03;99990.03;;;11.87;100.00
60725;BME280;59881;36.722;-4.462;2023-05-23T04:00:28;100284.72;;;13.70;100.00
60725;BME280;59881;36.722;-4.462;2023-05-23T04:02:54;100321.69;;;13.81;100.00
60725;BME280;59881;36.722;-4.462;2023-05-23T04:05:20;100235.84;;;13.43;100.00
60725;BME280;59881;36.722;-4.462;2023-05-23T04:07:45;100286.41;;;13.71;100.00
60725;BME280;59881;36.722;-4.462;2023-05-23T04:10:11;100265.56;;;13.57;100.00
60725;BME280;59881;36.722;-4.462;2023-05-23T04:12:37;100249.47;;;13.39;100.00
60725;BME280;59881;36.722;-4.462;2023-05-23T04:15:06;100321.03;;;13.89;100.00
60725;BME280;59881;36.722;-4.462;2023-05-23T04:17:32;100327.28;;;13.88;100.00
60725;BME280;59881;36.722;-4.462;2023-05-23T04:19:57;100144.16;;;12.81;100.00
60725;BME280;59881;36.722;-4.462;2023-05-23T04:22:23;100174.19;;;13.01;100.00
60725;BME280;59881;36.722;-4.462;2023-05-23T04:24:48;100061.94;;;12.32;99.76
60725;BME280;59881;36.722;-4.462;2023-05-23T04:27:14;99995.28;;;11.87;99.61
60725;BME280;59881;36.722;-4.462;2023-05-23T04:29:39;100296.63;;;13.85;99.60
60725;BME280;59881;36.722;-4.462;2023-05-23T04:32:05;100300.25;;;13.84;99.27
60725;BME280;59881;36.722;-4.462;2023-05-23T04:34:31;100229.41;;;13.36;98.99
60725;BME280;59881;36.722;-4.462;2023-05-23T04:37:00;100301.09;;;13.85;98.92
60725;BME280;59881;36.722;-4.462;2023-05-23T04:39:28;99833.81;;;10.97;98.36
60725;BME280;59881;36.722;-4.462;2023-05-23T04:41:55;99986.19;;;11.79;98.03
60725;BME280;59881;36.722;-4.462;2023-05-23T04:44:24;100283.06;;;13.69;97.89
60725;BME280;59881;36.722;-4.462;2023-05-23T04:46:51;100306.78;;;13.80;97.76
60725;BME280;59881;36.722;-4.462;2023-05-23T04:49:16;100318.22;;;13.81;97.80
60725;BME280;59881;36.722;-4.462;2023-05-23T04:51:42;100294.28;;;13.61;97.47
60725;BME280;59881;36.722;-4.462;2023-05-23T04:54:08;99986.19;;;11.79;97.21
60725;BME280;59881;36.722;-4.462;2023-05-23T04:56:34;100299.78;;;13.70;97.60
60725;BME280;59881;36.722;-4.462;2023-05-23T04:58:59;100317.50;;;13.79;97.20
60725;BME280;59881;36.722;-4.462;2023-05-23T05:01:25;100041.03;;;12.08;97.09
60725;BME280;59881;36.722;-4.462;2023-05-23T05:03:51;100053.59;;;11.95;96.73
60725;BME280;59881;36.722;-4.462;2023-05-23T05:06:17;100277.66;;;13.50;96.98
60725;BME280;59881;36.722;-4.462;2023-05-23T05:08:42;100330.50;;;13.82;96.92
60725;BME280;59881;36.722;-4.462;2023-05-23T05:11:09;100331.22;;;13.84;96.83
60725;BME280;59881;36.722;-4.462;2023-05-23T05:13:34;100321.25;;;13.76;96.89
60725;BME280;59881;36.722;-4.462;2023-05-23T05:16:00;100296.28;;;13.69;96.80
60725;BME280;59881;36.722;-4.462;2023-05-23T05:18:26;100037.63;;;12.17;96.33
60725;BME280;59881;36.722;-4.462;2023-05-23T05:20:52;100012.38;;;12.04;96.47
60725;BME280;59881;36.722;-4.462;2023-05-23T05:23:18;100271.31;;;13.62;96.73
60725;BME280;59881;36.722;-4.462;2023-05-23T05:25:43;100335.34;;;14.07;96.70
60725;BME280;59881;36.722;-4.462;2023-05-23T05:28:09;99769.25;;;10.71;96.19
60725;BME280;59881;36.722;-4.462;2023-05-23T05:30:34;100227.88;;;13.64;96.54
60725;BME280;59881;36.722;-4.462;2023-05-23T05:33:04;100333.06;;;14.34;96.40
60725;BME280;59881;36.722;-4.462;2023-05-23T05:35:39;100329.03;;;14.39;96.00
60725;BME280;59881;36.722;-4.462;2023-05-23T05:38:04;100330.28;;;14.45;95.56
60725;BME280;59881;36.722;-4.462;2023-05-23T05:40:33;100323.75;;;14.49;95.25
60725;BME280;59881;36.722;-4.462;2023-05-23T05:42:59;100287.06;;;13.94;94.89
60725;BME280;59881;36.722;-4.462;2023-05-23T05:45:24;100022.53;;;12.71;94.49
60725;BME280;59881;36.722;-4.462;2023-05-23T05:47:50;100335.97;;;14.71;94.32
60725;BME280;59881;36.722;-4.462;2023-05-23T05:50:16;100443.03;;;14.80;94.12
60725;BME280;59881;36.722;-4.462;2023-05-23T05:52:42;99979.84;;;12.76;93.37
60725;BME280;59881;36.722;-4.462;2023-05-23T05:55:09;100225.25;;;14.34;92.95
60725;BME280;59881;36.722;-4.462;2023-05-23T05:57:38;100322.47;;;15.03;92.00
60725;BME280;59881;36.722;-4.462;2023-05-23T06:00:09;100271.78;;;14.77;91.24
60725;BME280;59881;36.722;-4.462;2023-05-23T06:02:40;100311.44;;;15.08;90.36
60725;BME280;59881;36.722;-4.462;2023-05-23T06:05:08;100262.16;;;14.86;89.31
60725;BME280;59881;36.722;-4.462;2023-05-23T06:07:37;100017.63;;;13.38;88.60
60725;BME280;59881;36.722;-4.462;2023-05-23T06:10:03;100204.94;;;14.64;88.08
60725;BME280;59881;36.722;-4.462;2023-05-23T06:12:28;100285.00;;;15.26;87.64
60725;BME280;59881;36.722;-4.462;2023-05-23T06:14:54;100328.25;;;15.56;86.97
60725;BME280;59881;36.722;-4.462;2023-05-23T06:17:19;100342.25;;;15.48;86.03
60725;BME280;59881;36.722;-4.462;2023-05-23T06:19:45;100161.66;;;14.73;85.00
60725;BME280;59881;36.722;-4.462;2023-05-23T06:22:10;100325.59;;;15.75;84.28
60725;BME280;59881;36.722;-4.462;2023-05-23T06:24:36;100295.81;;;15.62;83.34
60725;BME280;59881;36.722;-4.462;2023-05-23T06:27:01;100292.06;;;15.74;82.68
60725;BME280;59881;36.722;-4.462;2023-05-23T06:29:28;100321.34;;;15.92;82.44
60725;BME280;59881;36.722;-4.462;2023-05-23T06:31:55;100356.13;;;15.99;81.96
60725;BME280;59881;36.722;-4.462;2023-05-23T06:34:21;100361.84;;;16.04;81.33
60725;BME280;59881;36.722;-4.462;2023-05-23T06:36:46;100329.66;;;16.07;80.92
60725;BME280;59881;36.722;-4.462;2023-05-23T06:39:13;100263.81;;;15.73;80.66
60725;BME280;59881;36.722;-4.462;2023-05-23T06:41:38;100324.44;;;16.15;80.27
60725;BME280;59881;36.722;-4.462;2023-05-23T06:44:04;100323.31;;;16.18;79.86
60725;BME280;59881;36.722;-4.462;2023-05-23T06:46:30;100317.72;;;16.21;79.46
60725;BME280;59881;36.722;-4.462;2023-05-23T06:48:56;99785.09;;;12.67;78.88
60725;BME280;59881;36.722;-4.462;2023-05-23T06:51:21;100325.63;;;16.30;78.91
60725;BME280;59881;36.722;-4.462;2023-05-23T06:53:47;100357.91;;;16.35;78.30
60725;BME280;59881;36.722;-4.462;2023-05-23T06:56:12;99951.16;;;14.09;78.05
60725;BME280;59881;36.722;-4.462;2023-05-23T06:58:38;99930.25;;;13.96;77.62
60725;BME280;59881;36.722;-4.462;2023-05-23T07:01:03;100337.69;;;16.52;77.53
60725;BME280;59881;36.722;-4.462;2023-05-23T07:03:29;100384.50;;;16.63;77.00
60725;BME280;59881;36.722;-4.462;2023-05-23T07:05:55;100000.69;;;14.56;76.54
60725;BME280;59881;36.722;-4.462;2023-05-23T07:08:21;100184.72;;;15.95;76.06
60725;BME280;59881;36.722;-4.462;2023-05-23T07:10:46;99864.31;;;14.13;75.24
60725;BME280;59881;36.722;-4.462;2023-05-23T07:13:12;99833.97;;;13.87;74.75
60725;BME280;59881;36.722;-4.462;2023-05-23T07:15:37;100382.69;;;17.27;74.36
60725;BME280;59881;36.722;-4.462;2023-05-23T07:18:03;100241.72;;;16.64;73.58
60725;BME280;59881;36.722;-4.462;2023-05-23T07:20:28;99979.16;;;15.24;72.96
60725;BME280;59881;36.722;-4.462;2023-05-23T07:22:54;100339.13;;;17.54;72.50
60725;BME280;59881;36.722;-4.462;2023-05-23T07:25:21;100157.19;;;16.49;71.76
60725;BME280;59881;36.722;-4.462;2023-05-23T07:27:47;100341.91;;;17.71;71.04
60725;BME280;59881;36.722;-4.462;2023-05-23T07:30:13;100346.44;;;17.78;70.83
60725;BME280;59881;36.722;-4.462;2023-05-23T07:32:39;100342.19;;;17.86;70.19
60725;BME280;59881;36.722;-4.462;2023-05-23T07:35:05;100347.78;;;18.01;70.10
60725;BME280;59881;36.722;-4.462;2023-05-23T07:37:30;100387.84;;;18.17;69.32
60725;BME280;59881;36.722;-4.462;2023-05-23T07:39:56;100345.59;;;18.38;68.56
60725;BME280;59881;36.722;-4.462;2023-05-23T07:42:21;100260.97;;;17.98;67.37
60725;BME280;59881;36.722;-4.462;2023-05-23T07:44:47;100408.25;;;18.69;66.86
60725;BME280;59881;36.722;-4.462;2023-05-23T07:47:12;100405.16;;;18.90;66.06
60725;BME280;59881;36.722;-4.462;2023-05-23T07:49:38;100235.59;;;18.36;65.21
60725;BME280;59881;36.722;-4.462;2023-05-23T07:52:03;100280.00;;;18.70;64.73
60725;BME280;59881;36.722;-4.462;2023-05-23T07:54:29;100377.69;;;19.22;64.29
60725;BME280;59881;36.722;-4.462;2023-05-23T07:56:55;100375.16;;;19.37;63.99
60725;BME280;59881;36.722;-4.462;2023-05-23T07:59:20;100343.94;;;19.54;63.76
60725;BME280;59881;36.722;-4.462;2023-05-23T08:01:47;100350.63;;;19.66;62.69
60725;BME280;59881;36.722;-4.462;2023-05-23T08:04:16;100351.13;;;19.70;61.92
60725;BME280;59881;36.722;-4.462;2023-05-23T08:06:41;100158.25;;;18.61;61.66
60725;BME280;59881;36.722;-4.462;2023-05-23T08:09:07;100111.91;;;18.21;61.09
60725;BME280;59881;36.722;-4.462;2023-05-23T08:11:33;100379.66;;;19.85;60.89
60725;BME280;59881;36.722;-4.462;2023-05-23T08:13:58;100348.28;;;19.38;60.99
60725;BME280;59881;36.722;-4.462;2023-05-23T08:16:24;100314.56;;;19.46;60.99
60725;BME280;59881;36.722;-4.462;2023-05-23T08:18:50;100315.03;;;19.65;61.05
60725;BME280;59881;36.722;-4.462;2023-05-23T08:21:16;100353.59;;;19.88;61.37
60725;BME280;59881;36.722;-4.462;2023-05-23T08:23:41;100353.78;;;19.86;61.04
60725;BME280;59881;36.722;-4.462;2023-05-23T08:26:07;100351.06;;;19.94;61.23
60725;BME280;59881;36.722;-4.462;2023-05-23T08:28:33;100217.28;;;19.23;61.28
60725;BME280;59881;36.722;-4.462;2023-05-23T08:30:59;100352.16;;;20.24;60.76
60725;BME280;59881;36.722;-4.462;2023-05-23T08:33:25;100213.16;;;19.69;60.40
60725;BME280;59881;36.722;-4.462;2023-05-23T08:35:50;100362.31;;;20.77;59.52
60725;BME280;59881;36.722;-4.462;2023-05-23T08:38:16;100343.69;;;20.83;58.88
60725;BME280;59881;36.722;-4.462;2023-05-23T08:40:49;100077.94;;;19.20;58.92
60725;BME280;59881;36.722;-4.462;2023-05-23T08:43:18;100328.44;;;20.84;58.53
60725;BME280;59881;36.722;-4.462;2023-05-23T08:45:44;100070.47;;;19.15;58.13
60725;BME280;59881;36.722;-4.462;2023-05-23T08:48:12;100343.84;;;20.82;57.84
60725;BME280;59881;36.722;-4.462;2023-05-23T08:50:41;100350.97;;;20.90;58.38
60725;BME280;59881;36.722;-4.462;2023-05-23T08:53:08;100357.19;;;21.13;57.77
60725;BME280;59881;36.722;-4.462;2023-05-23T08:55:36;100085.69;;;19.77;57.51
60725;BME280;59881;36.722;-4.462;2023-05-23T08:58:02;100330.81;;;21.63;56.47
60725;BME280;59881;36.722;-4.462;2023-05-23T09:00:28;100343.34;;;21.85;55.87
60725;BME280;59881;36.722;-4.462;2023-05-23T09:02:54;100346.84;;;22.01;55.15
60725;BME280;59881;36.722;-4.462;2023-05-23T09:05:21;100328.47;;;22.27;54.61
60725;BME280;59881;36.722;-4.462;2023-05-23T09:07:47;100292.94;;;22.25;53.61
60725;BME280;59881;36.722;-4.462;2023-05-23T09:10:14;100334.06;;;22.47;52.93
60725;BME280;59881;36.722;-4.462;2023-05-23T09:12:42;100228.63;;;22.02;52.18
60725;BME280;59881;36.722;-4.462;2023-05-23T09:15:09;100380.97;;;22.88;51.66
60725;BME280;59881;36.722;-4.462;2023-05-23T09:17:35;100286.66;;;22.76;51.43
60725;BME280;59881;36.722;-4.462;2023-05-23T09:20:01;100334.44;;;23.24;51.17
60725;BME280;59881;36.722;-4.462;2023-05-23T09:22:29;100340.38;;;23.41;51.17
60725;BME280;59881;36.722;-4.462;2023-05-23T09:24:55;100305.72;;;23.24;50.47
60725;BME280;59881;36.722;-4.462;2023-05-23T09:27:21;100396.25;;;23.45;50.70
60725;BME280;59881;36.722;-4.462;2023-05-23T09:29:47;100128.44;;;21.88;50.53
60725;BME280;59881;36.722;-4.462;2023-05-23T09:32:14;100336.66;;;23.42;50.06
60725;BME280;59881;36.722;-4.462;2023-05-23T09:34:41;100337.75;;;23.47;49.94
60725;BME280;59881;36.722;-4.462;2023-05-23T09:37:07;100340.13;;;23.64;49.99
60725;BME280;59881;36.722;-4.462;2023-05-23T09:39:36;100340.53;;;23.61;49.63
60725;BME280;59881;36.722;-4.462;2023-05-23T09:42:03;100342.53;;;23.52;50.33
60725;BME280;59881;36.722;-4.462;2023-05-23T09:44:28;100330.16;;;23.58;50.17
60725;BME280;59881;36.722;-4.462;2023-05-23T09:46:54;100344.41;;;23.80;49.60
60725;BME280;59881;36.722;-4.462;2023-05-23T09:49:19;100126.59;;;22.53;49.35
60725;BME280;59881;36.722;-4.462;2023-05-23T09:51:59;100328.47;;;23.78;48.46
60725;BME280;59881;36.722;-4.462;2023-05-23T09:54:25;100343.66;;;23.92;48.03
60725;BME280;59881;36.722;-4.462;2023-05-23T09:56:52;100340.28;;;24.19;47.46
60725;BME280;59881;36.722;-4.462;2023-05-23T09:59:20;100340.69;;;24.64;46.89
60725;BME280;59881;36.722;-4.462;2023-05-23T10:01:50;100341.84;;;25.43;45.75
60725;BME280;59881;36.722;-4.462;2023-05-23T10:04:20;100277.59;;;25.26;44.40
60725;BME280;59881;36.722;-4.462;2023-05-23T10:06:55;100346.31;;;26.15;43.59
60725;BME280;59881;36.722;-4.462;2023-05-23T10:09:22;100339.94;;;26.55;42.60
60725;BME280;59881;36.722;-4.462;2023-05-23T10:12:30;100339.06;;;26.61;42.16
60725;BME280;59881;36.722;-4.462;2023-05-23T10:15:03;100341.41;;;26.89;42.24
60725;BME280;59881;36.722;-4.462;2023-05-23T10:17:52;100376.41;;;27.91;40.70
60725;BME280;59881;36.722;-4.462;2023-05-23T10:20:24;100131.97;;;27.91;38.28
60725;BME280;59881;36.722;-4.462;2023-05-23T10:22:51;100326.78;;;29.72;35.88
60725;BME280;59881;36.722;-4.462;2023-05-23T10:25:17;100313.88;;;29.20;35.53
60725;BME280;59881;36.722;-4.462;2023-05-23T10:27:43;100316.59;;;28.78;36.71
60725;BME280;59881;36.722;-4.462;2023-05-23T10:30:09;100158.97;;;27.42;36.75
60725;BME280;59881;36.722;-4.462;2023-05-23T10:32:37;100333.41;;;28.68;37.10
60725;BME280;59881;36.722;-4.462;2023-05-23T10:37:56;100329.94;;;29.92;35.32
60725;BME280;59881;36.722;-4.462;2023-05-23T10:43:17;100234.81;;;28.93;35.78
60725;BME280;59881;36.722;-4.462;2023-05-23T10:45:45;100328.19;;;28.97;36.94
60725;BME280;59881;36.722;-4.462;2023-05-23T10:51:06;100298.69;;;28.28;37.11
60725;BME280;59881;36.722;-4.462;2023-05-23T10:53:35;100333.00;;;28.35;37.21
60725;BME280;59881;36.722;-4.462;2023-05-23T10:56:03;100322.72;;;28.06;37.31
60725;BME280;59881;36.722;-4.462;2023-05-23T10:58:30;100324.78;;;27.68;38.05
60725;BME280;59881;36.722;-4.462;2023-05-23T11:01:00;100140.53;;;26.13;38.70
60725;BME280;59881;36.722;-4.462;2023-05-23T11:03:48;100320.94;;;27.32;39.02
60725;BME280;59881;36.722;-4.462;2023-05-23T11:06:38;100322.88;;;27.24;39.19
60725;BME280;59881;36.722;-4.462;2023-05-23T11:11:54;100319.16;;;26.55;38.56
60725;BME280;59881;36.722;-4.462;2023-05-23T11:14:32;100325.56;;;26.09;39.53
60725;BME280;59881;36.722;-4.462;2023-05-23T11:17:28;100070.13;;;24.40;40.02
60725;BME280;59881;36.722;-4.462;2023-05-23T11:22:28;100067.06;;;24.49;40.59
60725;BME280;59881;36.722;-4.462;2023-05-23T11:24:56;100198.09;;;25.49;40.37
60725;BME280;59881;36.722;-4.462;2023-05-23T11:30:14;100323.50;;;26.05;39.87
60725;BME280;59881;36.722;-4.462;2023-05-23T11:32:49;100290.56;;;25.76;40.72
60725;BME280;59881;36.722;-4.462;2023-05-23T11:35:15;100320.66;;;25.93;40.90
60725;BME280;59881;36.722;-4.462;2023-05-23T11:37:42;100342.88;;;25.68;42.16
60725;BME280;59881;36.722;-4.462;2023-05-23T11:42:54;100303.66;;;24.99;44.02
60725;BME280;59881;36.722;-4.462;2023-05-23T11:45:23;100299.91;;;24.80;44.57
60725;BME280;59881;36.722;-4.462;2023-05-23T11:47:48;100252.97;;;24.34;44.62
60725;BME280;59881;36.722;-4.462;2023-05-23T11:50:15;100072.91;;;23.10;44.37
60725;BME280;59881;36.722;-4.462;2023-05-23T11:52:40;100304.03;;;24.69;44.65
60725;BME280;59881;36.722;-4.462;2023-05-23T11:55:07;99854.28;;;22.15;44.97
60725;BME280;59881;36.722;-4.462;2023-05-23T11:57:37;100079.13;;;23.72;44.52
60725;BME280;59881;36.722;-4.462;2023-05-23T12:00:05;100314.44;;;24.92;43.62
60725;BME280;59881;36.722;-4.462;2023-05-23T12:02:46;100224.75;;;24.17;43.70
60725;BME280;59881;36.722;-4.462;2023-05-23T12:05:13;100288.75;;;24.28;43.94
60725;BME280;59881;36.722;-4.462;2023-05-23T12:07:46;100240.44;;;23.65;42.90
60725;BME280;59881;36.722;-4.462;2023-05-23T12:10:16;100297.47;;;23.54;43.39
60725;BME280;59881;36.722;-4.462;2023-05-23T12:12:42;99834.34;;;20.45;44.00
60725;BME280;59881;36.722;-4.462;2023-05-23T12:15:10;100327.47;;;23.08;45.11
60725;BME280;59881;36.722;-4.462;2023-05-23T12:17:45;100088.59;;;21.49;45.80
60725;BME280;59881;36.722;-4.462;2023-05-23T12:20:11;100331.69;;;22.74;46.34
60725;BME280;59881;36.722;-4.462;2023-05-23T12:22:37;100234.63;;;21.68;45.68
60725;BME280;59881;36.722;-4.462;2023-05-23T12:25:02;100259.44;;;21.47;46.12
60725;BME280;59881;36.722;-4.462;2023-05-23T12:27:33;100324.16;;;21.74;46.66
60725;BME280;59881;36.722;-4.462;2023-05-23T12:30:07;100319.91;;;21.64;46.89
60725;BME280;59881;36.722;-4.462;2023-05-23T12:32:35;100017.75;;;19.63;46.64
60725;BME280;59881;36.722;-4.462;2023-05-23T12:35:03;100209.50;;;20.63;47.05
60725;BME280;59881;36.722;-4.462;2023-05-23T12:37:28;100237.84;;;20.73;47.27
60725;BME280;59881;36.722;-4.462;2023-05-23T12:39:54;100316.13;;;20.98;47.30
60725;BME280;59881;36.722;-4.462;2023-05-23T12:42:20;100328.09;;;20.87;47.75
60725;BME280;59881;36.722;-4.462;2023-05-23T12:44:50;100343.56;;;20.77;48.26
60725;BME280;59881;36.722;-4.462;2023-05-23T12:47:15;100384.47;;;20.85;48.67
60725;BME280;59881;36.722;-4.462;2023-05-23T12:49:41;100185.78;;;19.67;48.48
60725;BME280;59881;36.722;-4.462;2023-05-23T12:52:08;100080.56;;;18.80;48.58
60725;BME280;59881;36.722;-4.462;2023-05-23T12:54:34;100097.25;;;19.30;48.74
60725;BME280;59881;36.722;-4.462;2023-05-23T12:57:00;100339.75;;;20.94;49.52
60725;BME280;59881;36.722;-4.462;2023-05-23T12:59:25;100253.97;;;20.33;50.18
60725;BME280;59881;36.722;-4.462;2023-05-23T13:01:51;100180.84;;;19.39;51.06
60725;BME280;59881;36.722;-4.462;2023-05-23T13:04:16;100350.03;;;20.51;51.04
60725;BME280;59881;36.722;-4.462;2023-05-23T13:06:42;100356.94;;;20.37;51.70
60725;BME280;59881;36.722;-4.462;2023-05-23T13:09:08;99902.50;;;17.28;51.59
60725;BME280;59881;36.722;-4.462;2023-05-23T13:11:33;100370.81;;;19.93;52.66
60725;BME280;59881;36.722;-4.462;2023-05-23T13:13:59;100357.75;;;19.98;52.06
60725;BME280;59881;36.722;-4.462;2023-05-23T13:16:24;100300.19;;;19.71;52.57
60725;BME280;59881;36.722;-4.462;2023-05-23T13:18:50;100332.06;;;19.64;52.78
60725;BME280;59881;36.722;-4.462;2023-05-23T13:21:16;100389.63;;;20.16;52.80
60725;BME280;59881;36.722;-4.462;2023-05-23T13:23:41;100089.75;;;18.37;53.21
60725;BME280;59881;36.722;-4.462;2023-05-23T13:26:07;100259.28;;;19.54;53.12
60725;BME280;59881;36.722;-4.462;2023-05-23T13:28:33;100350.28;;;20.33;52.45
60725;BME280;59881;36.722;-4.462;2023-05-23T13:30:58;100145.28;;;18.83;51.37
60725;BME280;59881;36.722;-4.462;2023-05-23T13:33:24;99481.63;;;15.03;52.01
60725;BME280;59881;36.722;-4.462;2023-05-23T13:35:50;100369.81;;;20.42;52.50
60725;BME280;59881;36.722;-4.462;2023-05-23T13:38:17;99819.66;;;16.90;53.01
60725;BME280;59881;36.722;-4.462;2023-05-23T13:40:43;100367.06;;;20.11;53.15
60725;BME280;59881;36.722;-4.462;2023-05-23T13:43:08;100415.88;;;20.04;53.12
60725;BME280;59881;36.722;-4.462;2023-05-23T13:45:34;100361.59;;;20.04;54.20
60725;BME280;59881;36.722;-4.462;2023-05-23T13:48:00;99787.09;;;15.95;54.90
60725;BME280;59881;36.722;-4.462;2023-05-23T13:50:25;100471.53;;;20.01;56.71
60725;BME280;59881;36.722;-4.462;2023-05-23T13:52:51;100246.16;;;19.20;56.88
60725;BME280;59881;36.722;-4.462;2023-05-23T13:55:17;100247.34;;;19.09;55.95
60725;BME280;59881;36.722;-4.462;2023-05-23T13:57:43;99986.00;;;17.19;55.82
60725;BME280;59881;36.722;-4.462;2023-05-23T14:00:09;100181.94;;;18.64;56.97
60725;BME280;59881;36.722;-4.462;2023-05-23T14:02:35;100012.25;;;17.73;57.64
60725;BME280;59881;36.722;-4.462;2023-05-23T14:05:01;100377.81;;;19.94;57.71
60725;BME280;59881;36.722;-4.462;2023-05-23T14:07:26;99908.47;;;17.06;58.27
60725;BME280;59881;36.722;-4.462;2023-05-23T14:09:52;100077.25;;;17.96;58.66
60725;BME280;59881;36.722;-4.462;2023-05-23T14:12:17;100380.38;;;19.71;58.74